San Antonio International Airport
KSAT : rendu visible

Aérodrome :











RETROUVEZ-NOUS SUR...

 
LOGIN :

S'inscrire | Disclaimer

   EN    FR    IT 

 









Légende :    VFR   VFR Marginal   IFR   IFR Intensif   IFR Très Intensif
Visi : 
Plafond : 
>= 8 km
>= 3000ft
5 à 8 km
1000 à 3000 ft
1500m à 5 km
500 à 1000 ft
800 à 1500m
200 à 500 ft
< 800m
< 200 ft
Symboles :   Orages  Brouillard  Fortes neiges  Fortes précipitations  Vent > 20 kt






- Altitude de l'aérodrome : 809 ft
- Code IATA : SAT


KSAT - San Antonio International

DERNIER METAR :
  • 282221Z 31015G28KT 10SM -TSRA SCT050CB OVC120 28/22 A2999 RMK AO2 PK WND 31028/2221 LTG DSNT W-N RAB09 TSB09 PRESRR WSHFT 20 FRQ LTGICCG TS W-N MOVG SE P0000 T02830217 $

METARs EXPIRÉS :
  • 282210Z 01007KT 10SM -TSRA SCT050 OVC150 29/21 A2997 RMK AO2 LTG DSNT W-N RAB09 TSB09 FRQ LTGICCG TS DSNT W-NW MOVG SE P0000 T02890206
  • 282151Z 02004KT 10SM SCT050 OVC150 29/21 A2995 RMK AO2 LTG DSNT W AND NW SLP124 CB SHRA DSNT W-NW MOVG SE T02890206
  • 282051Z 09005KT 10SM SCT050 BKN250 29/21 A2991 RMK AO2 SLP111 CB SHRA DSNT NW-N MOVG S T02890206 55018
  • 281951Z 11006KT 10SM SCT060 SCT250 31/21 A2990 RMK AO2 SLP107 CB SHRA DSNT NW MOVG SE T03110206

TAF KSAT
Valide du 28 à 22h jusqu'au 30 à 00h UTC


282218Z 2822/2924 06007KT P6SM VCTS OVC035CB
FM282230 35015G25KT P6SM -TSRA OVC035CB
TEMPO 2823/2902 VRB20G30KT 3SM +TSRA BKN030CB
FM290200 04007KT P6SM BKN050
FM290600 36008KT P6SM BKN100
FIR KZHU / Amérique du Nord



MET'MAP, la Météo Aéronautique d'un coup d'oeil ! - Copyright ORBIFLY Décembre 2007 - Disclaimer

ORBIFLY MET'MAP TEAM :

Programmation & Développement : Alexandra Zaïnal
Sur une idée originale de : Baudouin d'Aumeries
Assistance à la programmation : Marc-Olivier Méhu
Soutien technique & logistique : Manuel Goepfert

Contact : metmap@orbifly.com




SOURCES & CREDITS :

   NOAA       Earth
Advisory